sensor_id;sensor_type;location;lat;lon;timestamp;P1;durP1;ratioP1;P2;durP2;ratioP2
4971;SDS011;2501;51.214;6.768;2023-07-20T00:01:13;8.57;;;4.20;;
4971;SDS011;2501;51.214;6.768;2023-07-20T00:03:42;4.20;;;3.80;;
4971;SDS011;2501;51.214;6.768;2023-07-20T00:06:13;7.53;;;4.30;;
4971;SDS011;2501;51.214;6.768;2023-07-20T00:08:41;6.53;;;4.97;;
4971;SDS011;2501;51.214;6.768;2023-07-20T00:11:10;9.10;;;4.72;;
4971;SDS011;2501;51.214;6.768;2023-07-20T00:13:38;5.25;;;4.30;;
4971;SDS011;2501;51.214;6.768;2023-07-20T00:16:07;6.85;;;4.32;;
4971;SDS011;2501;51.214;6.768;2023-07-20T00:18:38;4.75;;;4.05;;
4971;SDS011;2501;51.214;6.768;2023-07-20T00:21:06;8.20;;;4.40;;
4971;SDS011;2501;51.214;6.768;2023-07-20T00:23:35;7.43;;;4.28;;
4971;SDS011;2501;51.214;6.768;2023-07-20T00:26:03;6.57;;;4.60;;
4971;SDS011;2501;51.214;6.768;2023-07-20T00:28:32;10.40;;;4.30;;
4971;SDS011;2501;51.214;6.768;2023-07-20T00:31:00;7.73;;;4.27;;
4971;SDS011;2501;51.214;6.768;2023-07-20T00:33:29;8.33;;;4.40;;
4971;SDS011;2501;51.214;6.768;2023-07-20T00:36:00;8.50;;;4.30;;
4971;SDS011;2501;51.214;6.768;2023-07-20T00:38:28;5.43;;;4.30;;
4971;SDS011;2501;51.214;6.768;2023-07-20T00:40:57;9.38;;;4.20;;
4971;SDS011;2501;51.214;6.768;2023-07-20T00:43:25;8.80;;;4.30;;
4971;SDS011;2501;51.214;6.768;2023-07-20T00:45:53;11.30;;;4.40;;
4971;SDS011;2501;51.214;6.768;2023-07-20T00:48:22;12.17;;;4.10;;
4971;SDS011;2501;51.214;6.768;2023-07-20T00:50:51;6.00;;;4.20;;
4971;SDS011;2501;51.214;6.768;2023-07-20T00:53:23;4.60;;;3.90;;
4971;SDS011;2501;51.214;6.768;2023-07-20T00:55:51;7.35;;;3.90;;
4971;SDS011;2501;51.214;6.768;2023-07-20T00:58:20;6.00;;;3.80;;
4971;SDS011;2501;51.214;6.768;2023-07-20T01:00:48;7.32;;;3.45;;
4971;SDS011;2501;51.214;6.768;2023-07-20T01:03:17;9.02;;;4.57;;
4971;SDS011;2501;51.214;6.768;2023-07-20T01:05:47;7.45;;;4.03;;
4971;SDS011;2501;51.214;6.768;2023-07-20T01:08:27;6.30;;;3.70;;
4971;SDS011;2501;51.214;6.768;2023-07-20T01:11:06;6.35;;;3.97;;
4971;SDS011;2501;51.214;6.768;2023-07-20T01:13:38;7.20;;;3.80;;
4971;SDS011;2501;51.214;6.768;2023-07-20T01:16:07;7.25;;;3.97;;
4971;SDS011;2501;51.214;6.768;2023-07-20T01:18:36;7.10;;;4.30;;
4971;SDS011;2501;51.214;6.768;2023-07-20T01:21:06;5.03;;;3.78;;
4971;SDS011;2501;51.214;6.768;2023-07-20T01:24:01;4.50;;;3.95;;
4971;SDS011;2501;51.214;6.768;2023-07-20T01:26:47;7.65;;;4.20;;
4971;SDS011;2501;51.214;6.768;2023-07-20T01:29:42;9.05;;;4.10;;
4971;SDS011;2501;51.214;6.768;2023-07-20T01:32:26;4.30;;;3.70;;
4971;SDS011;2501;51.214;6.768;2023-07-20T01:34:55;5.03;;;4.30;;
4971;SDS011;2501;51.214;6.768;2023-07-20T01:37:26;9.00;;;4.57;;
4971;SDS011;2501;51.214;6.768;2023-07-20T01:39:56;12.00;;;4.70;;
4971;SDS011;2501;51.214;6.768;2023-07-20T01:42:26;8.52;;;5.40;;
4971;SDS011;2501;51.214;6.768;2023-07-20T01:44:55;5.60;;;4.50;;
4971;SDS011;2501;51.214;6.768;2023-07-20T01:47:26;6.57;;;4.32;;
4971;SDS011;2501;51.214;6.768;2023-07-20T01:49:54;7.70;;;4.60;;
4971;SDS011;2501;51.214;6.768;2023-07-20T01:52:22;6.57;;;4.50;;
4971;SDS011;2501;51.214;6.768;2023-07-20T01:54:51;8.60;;;4.30;;
4971;SDS011;2501;51.214;6.768;2023-07-20T01:57:19;7.90;;;4.07;;
4971;SDS011;2501;51.214;6.768;2023-07-20T01:59:47;7.85;;;4.28;;
4971;SDS011;2501;51.214;6.768;2023-07-20T02:02:16;6.25;;;3.90;;
4971;SDS011;2501;51.214;6.768;2023-07-20T02:04:48;5.60;;;4.20;;
4971;SDS011;2501;51.214;6.768;2023-07-20T02:07:17;7.30;;;4.40;;
4971;SDS011;2501;51.214;6.768;2023-07-20T02:09:45;6.03;;;4.25;;
4971;SDS011;2501;51.214;6.768;2023-07-20T02:12:13;7.25;;;4.00;;
4971;SDS011;2501;51.214;6.768;2023-07-20T02:14:42;6.40;;;4.07;;
4971;SDS011;2501;51.214;6.768;2023-07-20T02:17:10;7.77;;;4.23;;
4971;SDS011;2501;51.214;6.768;2023-07-20T02:19:40;6.70;;;3.90;;
4971;SDS011;2501;51.214;6.768;2023-07-20T02:22:11;4.43;;;3.90;;
4971;SDS011;2501;51.214;6.768;2023-07-20T02:24:39;5.43;;;3.95;;
4971;SDS011;2501;51.214;6.768;2023-07-20T02:27:08;4.70;;;3.67;;
4971;SDS011;2501;51.214;6.768;2023-07-20T02:29:36;4.35;;;3.40;;
4971;SDS011;2501;51.214;6.768;2023-07-20T02:32:05;4.60;;;3.90;;
4971;SDS011;2501;51.214;6.768;2023-07-20T02:34:34;4.70;;;3.90;;
4971;SDS011;2501;51.214;6.768;2023-07-20T02:37:03;6.38;;;4.10;;
4971;SDS011;2501;51.214;6.768;2023-07-20T02:39:35;5.83;;;3.90;;
4971;SDS011;2501;51.214;6.768;2023-07-20T02:42:03;5.30;;;3.75;;
4971;SDS011;2501;51.214;6.768;2023-07-20T02:44:32;4.53;;;4.07;;
4971;SDS011;2501;51.214;6.768;2023-07-20T02:47:00;5.40;;;3.50;;
4971;SDS011;2501;51.214;6.768;2023-07-20T02:49:29;7.72;;;4.80;;
4971;SDS011;2501;51.214;6.768;2023-07-20T02:51:57;3.85;;;3.42;;
4971;SDS011;2501;51.214;6.768;2023-07-20T02:54:26;8.60;;;4.00;;
4971;SDS011;2501;51.214;6.768;2023-07-20T02:56:57;5.47;;;4.13;;
4971;SDS011;2501;51.214;6.768;2023-07-20T02:59:26;6.13;;;4.10;;
4971;SDS011;2501;51.214;6.768;2023-07-20T03:01:54;7.70;;;4.40;;
4971;SDS011;2501;51.214;6.768;2023-07-20T03:04:25;4.80;;;4.28;;
4971;SDS011;2501;51.214;6.768;2023-07-20T03:06:53;6.93;;;4.00;;
4971;SDS011;2501;51.214;6.768;2023-07-20T03:09:22;6.07;;;4.32;;
4971;SDS011;2501;51.214;6.768;2023-07-20T03:11:50;8.87;;;4.70;;
4971;SDS011;2501;51.214;6.768;2023-07-20T03:14:21;7.30;;;4.70;;
4971;SDS011;2501;51.214;6.768;2023-07-20T03:16:50;7.68;;;4.65;;
4971;SDS011;2501;51.214;6.768;2023-07-20T03:19:19;7.95;;;4.72;;
4971;SDS011;2501;51.214;6.768;2023-07-20T03:21:47;7.43;;;5.10;;
4971;SDS011;2501;51.214;6.768;2023-07-20T03:24:16;7.05;;;5.05;;
4971;SDS011;2501;51.214;6.768;2023-07-20T03:26:44;11.02;;;5.38;;
4971;SDS011;2501;51.214;6.768;2023-07-20T03:29:12;8.30;;;5.50;;
4971;SDS011;2501;51.214;6.768;2023-07-20T03:31:43;6.32;;;5.00;;
4971;SDS011;2501;51.214;6.768;2023-07-20T03:34:13;5.78;;;5.07;;
4971;SDS011;2501;51.214;6.768;2023-07-20T03:36:41;9.70;;;5.40;;
4971;SDS011;2501;51.214;6.768;2023-07-20T03:39:10;9.40;;;5.68;;
4971;SDS011;2501;51.214;6.768;2023-07-20T03:41:38;9.27;;;5.90;;
4971;SDS011;2501;51.214;6.768;2023-07-20T03:44:08;7.05;;;5.55;;
4971;SDS011;2501;51.214;6.768;2023-07-20T03:46:36;7.93;;;5.15;;
4971;SDS011;2501;51.214;6.768;2023-07-20T03:49:07;9.02;;;5.47;;
4971;SDS011;2501;51.214;6.768;2023-07-20T03:51:36;7.97;;;5.50;;
4971;SDS011;2501;51.214;6.768;2023-07-20T03:54:04;9.75;;;5.82;;
4971;SDS011;2501;51.214;6.768;2023-07-20T03:56:33;11.57;;;5.85;;
4971;SDS011;2501;51.214;6.768;2023-07-20T03:59:01;9.93;;;5.50;;
4971;SDS011;2501;51.214;6.768;2023-07-20T04:01:30;6.80;;;5.32;;
4971;SDS011;2501;51.214;6.768;2023-07-20T04:04:01;6.47;;;5.30;;
4971;SDS011;2501;51.214;6.768;2023-07-20T04:06:35;7.80;;;5.10;;
4971;SDS011;2501;51.214;6.768;2023-07-20T04:09:03;9.38;;;5.75;;
4971;SDS011;2501;51.214;6.768;2023-07-20T04:11:32;12.30;;;5.80;;
4971;SDS011;2501;51.214;6.768;2023-07-20T04:14:01;10.57;;;6.22;;
4971;SDS011;2501;51.214;6.768;2023-07-20T04:16:29;10.00;;;6.00;;
4971;SDS011;2501;51.214;6.768;2023-07-20T04:18:58;12.93;;;6.00;;
4971;SDS011;2501;51.214;6.768;2023-07-20T04:21:26;11.80;;;6.82;;
4971;SDS011;2501;51.214;6.768;2023-07-20T04:23:58;10.27;;;6.23;;
4971;SDS011;2501;51.214;6.768;2023-07-20T04:26:26;10.98;;;6.18;;
4971;SDS011;2501;51.214;6.768;2023-07-20T04:28:54;12.00;;;6.03;;
4971;SDS011;2501;51.214;6.768;2023-07-20T04:31:24;10.50;;;7.13;;
4971;SDS011;2501;51.214;6.768;2023-07-20T04:33:52;16.15;;;7.55;;
4971;SDS011;2501;51.214;6.768;2023-07-20T04:36:21;9.35;;;7.40;;
4971;SDS011;2501;51.214;6.768;2023-07-20T04:38:49;13.07;;;7.60;;
4971;SDS011;2501;51.214;6.768;2023-07-20T04:41:18;16.07;;;7.80;;
4971;SDS011;2501;51.214;6.768;2023-07-20T04:43:46;15.40;;;7.32;;
4971;SDS011;2501;51.214;6.768;2023-07-20T04:46:14;15.65;;;7.82;;
4971;SDS011;2501;51.214;6.768;2023-07-20T04:48:44;16.60;;;8.00;;
4971;SDS011;2501;51.214;6.768;2023-07-20T04:51:13;11.60;;;7.63;;
4971;SDS011;2501;51.214;6.768;2023-07-20T04:53:42;9.35;;;7.55;;
4971;SDS011;2501;51.214;6.768;2023-07-20T04:56:10;16.77;;;8.38;;
4971;SDS011;2501;51.214;6.768;2023-07-20T04:58:41;15.63;;;8.25;;
4971;SDS011;2501;51.214;6.768;2023-07-20T05:01:10;12.90;;;8.90;;
4971;SDS011;2501;51.214;6.768;2023-07-20T05:03:38;13.98;;;9.20;;
4971;SDS011;2501;51.214;6.768;2023-07-20T05:06:07;15.45;;;9.75;;
4971;SDS011;2501;51.214;6.768;2023-07-20T05:08:35;20.00;;;10.60;;
4971;SDS011;2501;51.214;6.768;2023-07-20T05:11:04;19.58;;;12.40;;
4971;SDS011;2501;51.214;6.768;2023-07-20T05:13:32;19.48;;;12.60;;
4971;SDS011;2501;51.214;6.768;2023-07-20T05:16:04;19.73;;;13.30;;
4971;SDS011;2501;51.214;6.768;2023-07-20T05:18:33;23.33;;;13.20;;
4971;SDS011;2501;51.214;6.768;2023-07-20T05:21:01;16.95;;;12.30;;
4971;SDS011;2501;51.214;6.768;2023-07-20T05:23:30;17.23;;;12.02;;
4971;SDS011;2501;51.214;6.768;2023-07-20T05:25:59;19.90;;;12.80;;
4971;SDS011;2501;51.214;6.768;2023-07-20T05:28:27;20.10;;;11.77;;
4971;SDS011;2501;51.214;6.768;2023-07-20T05:30:56;26.63;;;12.67;;
4971;SDS011;2501;51.214;6.768;2023-07-20T05:33:27;19.60;;;12.88;;
4971;SDS011;2501;51.214;6.768;2023-07-20T05:35:55;18.10;;;12.10;;
4971;SDS011;2501;51.214;6.768;2023-07-20T05:38:24;19.30;;;12.82;;
4971;SDS011;2501;51.214;6.768;2023-07-20T05:40:58;21.38;;;14.35;;
4971;SDS011;2501;51.214;6.768;2023-07-20T05:43:29;21.80;;;13.70;;
4971;SDS011;2501;51.214;6.768;2023-07-20T05:45:57;16.92;;;12.25;;
4971;SDS011;2501;51.214;6.768;2023-07-20T05:48:28;20.67;;;13.90;;
4971;SDS011;2501;51.214;6.768;2023-07-20T05:50:56;21.55;;;13.07;;
4971;SDS011;2501;51.214;6.768;2023-07-20T05:53:25;16.58;;;12.38;;
4971;SDS011;2501;51.214;6.768;2023-07-20T05:55:53;20.05;;;13.07;;
4971;SDS011;2501;51.214;6.768;2023-07-20T05:58:22;17.48;;;12.10;;
4971;SDS011;2501;51.214;6.768;2023-07-20T06:00:53;19.90;;;12.77;;
4971;SDS011;2501;51.214;6.768;2023-07-20T06:03:21;22.05;;;13.30;;
4971;SDS011;2501;51.214;6.768;2023-07-20T06:05:57;18.20;;;12.73;;
4971;SDS011;2501;51.214;6.768;2023-07-20T06:08:26;22.40;;;15.03;;
4971;SDS011;2501;51.214;6.768;2023-07-20T06:10:55;19.83;;;12.10;;
4971;SDS011;2501;51.214;6.768;2023-07-20T06:13:23;22.25;;;12.32;;
4971;SDS011;2501;51.214;6.768;2023-07-20T06:15:52;16.70;;;12.47;;
4971;SDS011;2501;51.214;6.768;2023-07-20T06:18:22;19.73;;;11.70;;
4971;SDS011;2501;51.214;6.768;2023-07-20T06:20:53;19.60;;;12.30;;
4971;SDS011;2501;51.214;6.768;2023-07-20T06:23:21;18.75;;;10.75;;
4971;SDS011;2501;51.214;6.768;2023-07-20T06:25:50;15.48;;;10.13;;
4971;SDS011;2501;51.214;6.768;2023-07-20T06:28:18;12.35;;;9.80;;
4971;SDS011;2501;51.214;6.768;2023-07-20T06:30:47;12.80;;;9.10;;
4971;SDS011;2501;51.214;6.768;2023-07-20T06:33:16;17.95;;;9.40;;
4971;SDS011;2501;51.214;6.768;2023-07-20T06:35:45;8.77;;;7.50;;
4971;SDS011;2501;51.214;6.768;2023-07-20T06:38:16;11.00;;;8.27;;
4971;SDS011;2501;51.214;6.768;2023-07-20T06:40:45;11.05;;;7.10;;
4971;SDS011;2501;51.214;6.768;2023-07-20T06:43:14;7.15;;;6.45;;
4971;SDS011;2501;51.214;6.768;2023-07-20T06:45:42;7.47;;;6.05;;
4971;SDS011;2501;51.214;6.768;2023-07-20T06:48:11;8.32;;;5.80;;
4971;SDS011;2501;51.214;6.768;2023-07-20T06:50:39;9.30;;;5.93;;
4971;SDS011;2501;51.214;6.768;2023-07-20T06:53:08;8.23;;;4.90;;
4971;SDS011;2501;51.214;6.768;2023-07-20T06:55:39;9.53;;;5.00;;
4971;SDS011;2501;51.214;6.768;2023-07-20T06:58:10;5.80;;;4.95;;
4971;SDS011;2501;51.214;6.768;2023-07-20T07:00:39;8.07;;;3.60;;
4971;SDS011;2501;51.214;6.768;2023-07-20T07:03:07;5.10;;;2.92;;
4971;SDS011;2501;51.214;6.768;2023-07-20T07:05:36;3.65;;;3.35;;
4971;SDS011;2501;51.214;6.768;2023-07-20T07:08:05;3.83;;;3.53;;
4971;SDS011;2501;51.214;6.768;2023-07-20T07:10:35;5.23;;;3.17;;
4971;SDS011;2501;51.214;6.768;2023-07-20T07:13:06;6.50;;;3.10;;
4971;SDS011;2501;51.214;6.768;2023-07-20T07:15:35;5.45;;;3.60;;
4971;SDS011;2501;51.214;6.768;2023-07-20T07:18:03;4.00;;;3.15;;
4971;SDS011;2501;51.214;6.768;2023-07-20T07:20:32;7.82;;;3.67;;
4971;SDS011;2501;51.214;6.768;2023-07-20T07:23:01;6.13;;;3.60;;
4971;SDS011;2501;51.214;6.768;2023-07-20T07:25:29;4.55;;;3.28;;
4971;SDS011;2501;51.214;6.768;2023-07-20T07:28:00;6.40;;;3.60;;
4971;SDS011;2501;51.214;6.768;2023-07-20T07:30:29;3.40;;;3.20;;
4971;SDS011;2501;51.214;6.768;2023-07-20T07:32:57;4.63;;;4.20;;
4971;SDS011;2501;51.214;6.768;2023-07-20T07:35:26;6.93;;;4.90;;
4971;SDS011;2501;51.214;6.768;2023-07-20T07:37:54;5.32;;;4.00;;
4971;SDS011;2501;51.214;6.768;2023-07-20T07:40:23;9.70;;;4.25;;
4971;SDS011;2501;51.214;6.768;2023-07-20T07:42:51;4.50;;;3.92;;
4971;SDS011;2501;51.214;6.768;2023-07-20T07:45:22;4.40;;;4.00;;
4971;SDS011;2501;51.214;6.768;2023-07-20T07:47:51;5.22;;;3.35;;
4971;SDS011;2501;51.214;6.768;2023-07-20T07:50:19;5.75;;;2.85;;
4971;SDS011;2501;51.214;6.768;2023-07-20T07:52:48;2.88;;;2.67;;
4971;SDS011;2501;51.214;6.768;2023-07-20T07:55:17;2.83;;;2.53;;
4971;SDS011;2501;51.214;6.768;2023-07-20T07:57:45;2.53;;;2.33;;
4971;SDS011;2501;51.214;6.768;2023-07-20T08:00:14;2.83;;;2.17;;
4971;SDS011;2501;51.214;6.768;2023-07-20T08:02:46;3.90;;;2.40;;
4971;SDS011;2501;51.214;6.768;2023-07-20T08:05:15;3.50;;;2.50;;
4971;SDS011;2501;51.214;6.768;2023-07-20T08:07:44;2.58;;;2.30;;
4971;SDS011;2501;51.214;6.768;2023-07-20T08:10:13;4.50;;;2.00;;
4971;SDS011;2501;51.214;6.768;2023-07-20T08:12:41;2.40;;;1.90;;
4971;SDS011;2501;51.214;6.768;2023-07-20T08:15:10;4.30;;;1.70;;
4971;SDS011;2501;51.214;6.768;2023-07-20T08:17:42;2.30;;;1.20;;
4971;SDS011;2501;51.214;6.768;2023-07-20T08:20:13;1.35;;;1.20;;
4971;SDS011;2501;51.214;6.768;2023-07-20T08:22:42;1.50;;;0.90;;
4971;SDS011;2501;51.214;6.768;2023-07-20T09:09:02;1.48;;;1.00;;
4971;SDS011;2501;51.214;6.768;2023-07-20T09:11:30;4.10;;;1.27;;
4971;SDS011;2501;51.214;6.768;2023-07-20T09:14:03;1.65;;;1.10;;
4971;SDS011;2501;51.214;6.768;2023-07-20T09:16:32;1.17;;;1.08;;
4971;SDS011;2501;51.214;6.768;2023-07-20T09:19:14;1.10;;;1.00;;
4971;SDS011;2501;51.214;6.768;2023-07-20T09:21:46;2.30;;;1.05;;
4971;SDS011;2501;51.214;6.768;2023-07-20T09:24:19;1.30;;;1.10;;
4971;SDS011;2501;51.214;6.768;2023-07-20T09:26:48;2.70;;;1.00;;
4971;SDS011;2501;51.214;6.768;2023-07-20T09:29:17;1.40;;;1.10;;
4971;SDS011;2501;51.214;6.768;2023-07-20T09:31:58;3.50;;;0.80;;
4971;SDS011;2501;51.214;6.768;2023-07-20T09:34:28;1.80;;;1.05;;
4971;SDS011;2501;51.214;6.768;2023-07-20T09:36:57;2.70;;;1.00;;
4971;SDS011;2501;51.214;6.768;2023-07-20T09:39:28;2.70;;;1.00;;
4971;SDS011;2501;51.214;6.768;2023-07-20T09:41:59;2.10;;;0.88;;
4971;SDS011;2501;51.214;6.768;2023-07-20T09:44:30;3.03;;;1.10;;
4971;SDS011;2501;51.214;6.768;2023-07-20T09:46:58;1.67;;;0.82;;
4971;SDS011;2501;51.214;6.768;2023-07-20T09:49:27;1.40;;;1.00;;
4971;SDS011;2501;51.214;6.768;2023-07-20T09:51:56;4.93;;;1.20;;
4971;SDS011;2501;51.214;6.768;2023-07-20T09:54:32;1.85;;;0.80;;
4971;SDS011;2501;51.214;6.768;2023-07-20T09:57:02;5.38;;;1.10;;
4971;SDS011;2501;51.214;6.768;2023-07-20T09:59:31;2.00;;;0.73;;
4971;SDS011;2501;51.214;6.768;2023-07-20T10:02:00;0.80;;;0.70;;
4971;SDS011;2501;51.214;6.768;2023-07-20T10:04:32;0.82;;;0.82;;
4971;SDS011;2501;51.214;6.768;2023-07-20T10:07:05;1.50;;;0.90;;
4971;SDS011;2501;51.214;6.768;2023-07-20T10:09:41;1.70;;;0.80;;
4971;SDS011;2501;51.214;6.768;2023-07-20T10:12:13;0.93;;;0.70;;
4971;SDS011;2501;51.214;6.768;2023-07-20T10:14:44;0.80;;;0.70;;
4971;SDS011;2501;51.214;6.768;2023-07-20T10:17:19;1.25;;;0.88;;
4971;SDS011;2501;51.214;6.768;2023-07-20T10:19:49;1.10;;;1.00;;
4971;SDS011;2501;51.214;6.768;2023-07-20T10:22:23;2.90;;;0.85;;
4971;SDS011;2501;51.214;6.768;2023-07-20T10:24:56;1.50;;;1.00;;
4971;SDS011;2501;51.214;6.768;2023-07-20T10:27:26;2.03;;;1.85;;
4971;SDS011;2501;51.214;6.768;2023-07-20T10:29:55;1.75;;;0.80;;
4971;SDS011;2501;51.214;6.768;2023-07-20T10:32:26;1.20;;;0.87;;
4971;SDS011;2501;51.214;6.768;2023-07-20T10:34:56;1.70;;;0.80;;
4971;SDS011;2501;51.214;6.768;2023-07-20T10:40:28;1.53;;;0.90;;
4971;SDS011;2501;51.214;6.768;2023-07-20T10:43:01;1.50;;;0.80;;
4971;SDS011;2501;51.214;6.768;2023-07-20T10:45:35;3.63;;;1.08;;
4971;SDS011;2501;51.214;6.768;2023-07-20T10:48:05;2.10;;;0.90;;
4971;SDS011;2501;51.214;6.768;2023-07-20T10:50:35;1.87;;;1.00;;
4971;SDS011;2501;51.214;6.768;2023-07-20T10:53:04;1.00;;;0.90;;
4971;SDS011;2501;51.214;6.768;2023-07-20T10:55:35;3.20;;;1.60;;
4971;SDS011;2501;51.214;6.768;2023-07-20T10:58:10;0.90;;;0.70;;
4971;SDS011;2501;51.214;6.768;2023-07-20T11:03:28;1.13;;;0.70;;
4971;SDS011;2501;51.214;6.768;2023-07-20T11:05:58;1.90;;;1.10;;
4971;SDS011;2501;51.214;6.768;2023-07-20T11:08:40;1.50;;;0.90;;
4971;SDS011;2501;51.214;6.768;2023-07-20T11:11:24;1.55;;;1.02;;
4971;SDS011;2501;51.214;6.768;2023-07-20T11:13:55;1.27;;;0.80;;
4971;SDS011;2501;51.214;6.768;2023-07-20T11:16:34;0.90;;;0.70;;
4971;SDS011;2501;51.214;6.768;2023-07-20T11:19:05;2.22;;;0.80;;
4971;SDS011;2501;51.214;6.768;2023-07-20T11:21:38;1.80;;;0.90;;
4971;SDS011;2501;51.214;6.768;2023-07-20T11:24:08;1.10;;;0.80;;
4971;SDS011;2501;51.214;6.768;2023-07-20T11:26:48;0.90;;;0.90;;
4971;SDS011;2501;51.214;6.768;2023-07-20T11:29:19;1.00;;;0.90;;
4971;SDS011;2501;51.214;6.768;2023-07-20T11:31:48;2.60;;;1.02;;
4971;SDS011;2501;51.214;6.768;2023-07-20T11:34:17;0.90;;;0.80;;
4971;SDS011;2501;51.214;6.768;2023-07-20T11:36:47;3.80;;;0.93;;
4971;SDS011;2501;51.214;6.768;2023-07-20T11:39:18;1.33;;;1.00;;
4971;SDS011;2501;51.214;6.768;2023-07-20T11:41:51;3.50;;;1.00;;
4971;SDS011;2501;51.214;6.768;2023-07-20T11:44:21;0.90;;;0.80;;
4971;SDS011;2501;51.214;6.768;2023-07-20T11:46:59;3.15;;;0.93;;
4971;SDS011;2501;51.214;6.768;2023-07-20T11:49:28;1.92;;;0.90;;
4971;SDS011;2501;51.214;6.768;2023-07-20T11:51:57;1.20;;;1.10;;
4971;SDS011;2501;51.214;6.768;2023-07-20T11:54:25;1.52;;;0.80;;
4971;SDS011;2501;51.214;6.768;2023-07-20T11:57:00;3.60;;;1.27;;
4971;SDS011;2501;51.214;6.768;2023-07-20T11:59:30;1.20;;;1.10;;
4971;SDS011;2501;51.214;6.768;2023-07-20T12:01:58;2.10;;;1.00;;
4971;SDS011;2501;51.214;6.768;2023-07-20T12:04:30;0.90;;;0.90;;
4971;SDS011;2501;51.214;6.768;2023-07-20T12:06:59;0.80;;;0.80;;
4971;SDS011;2501;51.214;6.768;2023-07-20T12:09:30;0.98;;;0.98;;
4971;SDS011;2501;51.214;6.768;2023-07-20T12:12:08;1.50;;;1.10;;
4971;SDS011;2501;51.214;6.768;2023-07-20T12:14:38;1.90;;;1.00;;
4971;SDS011;2501;51.214;6.768;2023-07-20T12:17:07;6.90;;;1.60;;
4971;SDS011;2501;51.214;6.768;2023-07-20T12:19:37;8.15;;;1.00;;
4971;SDS011;2501;51.214;6.768;2023-07-20T12:22:06;1.20;;;1.10;;
4971;SDS011;2501;51.214;6.768;2023-07-20T12:24:36;1.10;;;1.00;;
4971;SDS011;2501;51.214;6.768;2023-07-20T12:27:07;2.80;;;0.90;;
4971;SDS011;2501;51.214;6.768;2023-07-20T12:29:36;3.50;;;1.10;;
4971;SDS011;2501;51.214;6.768;2023-07-20T12:32:05;1.60;;;1.10;;
4971;SDS011;2501;51.214;6.768;2023-07-20T12:34:34;1.15;;;1.05;;
4971;SDS011;2501;51.214;6.768;2023-07-20T12:37:04;1.30;;;1.00;;
4971;SDS011;2501;51.214;6.768;2023-07-20T12:39:32;1.02;;;0.90;;
4971;SDS011;2501;51.214;6.768;2023-07-20T12:42:01;1.10;;;0.90;;
4971;SDS011;2501;51.214;6.768;2023-07-20T12:44:32;2.70;;;1.00;;
4971;SDS011;2501;51.214;6.768;2023-07-20T12:47:00;0.73;;;0.73;;
4971;SDS011;2501;51.214;6.768;2023-07-20T12:49:29;3.28;;;1.50;;
4971;SDS011;2501;51.214;6.768;2023-07-20T12:51:57;1.30;;;1.00;;
4971;SDS011;2501;51.214;6.768;2023-07-20T12:54:26;4.60;;;1.00;;
4971;SDS011;2501;51.214;6.768;2023-07-20T12:56:54;1.02;;;0.93;;
4971;SDS011;2501;51.214;6.768;2023-07-20T12:59:23;0.80;;;0.80;;
4971;SDS011;2501;51.214;6.768;2023-07-20T13:01:54;1.00;;;0.80;;
4971;SDS011;2501;51.214;6.768;2023-07-20T13:04:22;3.85;;;1.60;;
4971;SDS011;2501;51.214;6.768;2023-07-20T13:06:51;1.10;;;0.90;;
4971;SDS011;2501;51.214;6.768;2023-07-20T13:09:19;3.13;;;1.00;;
4971;SDS011;2501;51.214;6.768;2023-07-20T13:11:48;2.70;;;1.00;;
4971;SDS011;2501;51.214;6.768;2023-07-20T13:14:17;3.03;;;1.10;;
4971;SDS011;2501;51.214;6.768;2023-07-20T13:16:46;3.00;;;1.00;;
4971;SDS011;2501;51.214;6.768;2023-07-20T13:19:17;1.80;;;0.80;;
4971;SDS011;2501;51.214;6.768;2023-07-20T13:21:45;1.08;;;0.90;;
4971;SDS011;2501;51.214;6.768;2023-07-20T13:24:14;1.40;;;1.20;;
4971;SDS011;2501;51.214;6.768;2023-07-20T13:26:42;4.93;;;1.10;;
4971;SDS011;2501;51.214;6.768;2023-07-20T13:29:11;6.10;;;0.90;;
4971;SDS011;2501;51.214;6.768;2023-07-20T13:31:39;1.40;;;0.80;;
4971;SDS011;2501;51.214;6.768;2023-07-20T13:34:08;2.33;;;1.10;;
4971;SDS011;2501;51.214;6.768;2023-07-20T13:36:39;1.00;;;1.00;;
4971;SDS011;2501;51.214;6.768;2023-07-20T13:39:07;3.20;;;0.95;;
4971;SDS011;2501;51.214;6.768;2023-07-20T13:41:36;3.60;;;1.10;;
4971;SDS011;2501;51.214;6.768;2023-07-20T13:44:04;1.80;;;1.20;;
4971;SDS011;2501;51.214;6.768;2023-07-20T13:46:33;1.70;;;1.48;;
4971;SDS011;2501;51.214;6.768;2023-07-20T13:49:01;1.00;;;0.90;;
4971;SDS011;2501;51.214;6.768;2023-07-20T13:51:30;1.10;;;1.00;;
4971;SDS011;2501;51.214;6.768;2023-07-20T13:54:01;2.00;;;0.90;;
4971;SDS011;2501;51.214;6.768;2023-07-20T13:56:29;3.15;;;1.10;;
4971;SDS011;2501;51.214;6.768;2023-07-20T13:58:58;4.45;;;0.90;;
4971;SDS011;2501;51.214;6.768;2023-07-20T14:01:26;1.70;;;0.90;;
4971;SDS011;2501;51.214;6.768;2023-07-20T14:03:58;1.40;;;1.05;;
4971;SDS011;2501;51.214;6.768;2023-07-20T14:06:29;1.50;;;1.10;;
4971;SDS011;2501;51.214;6.768;2023-07-20T14:08:58;1.10;;;1.00;;
4971;SDS011;2501;51.214;6.768;2023-07-20T14:11:30;1.00;;;0.82;;
4971;SDS011;2501;51.214;6.768;2023-07-20T14:13:58;1.40;;;0.80;;
4971;SDS011;2501;51.214;6.768;2023-07-20T14:16:27;0.95;;;0.95;;
4971;SDS011;2501;51.214;6.768;2023-07-20T14:18:57;1.58;;;0.80;;
4971;SDS011;2501;51.214;6.768;2023-07-20T14:21:26;4.30;;;1.10;;
4971;SDS011;2501;51.214;6.768;2023-07-20T14:23:56;2.45;;;1.20;;
4971;SDS011;2501;51.214;6.768;2023-07-20T14:26:27;0.82;;;0.82;;
4971;SDS011;2501;51.214;6.768;2023-07-20T14:28:56;5.57;;;1.00;;
4971;SDS011;2501;51.214;6.768;2023-07-20T14:31:24;1.52;;;1.20;;
4971;SDS011;2501;51.214;6.768;2023-07-20T14:33:53;1.48;;;0.90;;
4971;SDS011;2501;51.214;6.768;2023-07-20T14:36:22;0.90;;;0.90;;
4971;SDS011;2501;51.214;6.768;2023-07-20T14:38:50;2.55;;;1.10;;
4971;SDS011;2501;51.214;6.768;2023-07-20T14:41:19;4.90;;;1.00;;
4971;SDS011;2501;51.214;6.768;2023-07-20T14:43:50;1.08;;;1.00;;
4971;SDS011;2501;51.214;6.768;2023-07-20T14:46:18;1.48;;;1.10;;
4971;SDS011;2501;51.214;6.768;2023-07-20T14:48:46;1.67;;;0.80;;
4971;SDS011;2501;51.214;6.768;2023-07-20T14:51:17;1.40;;;0.90;;
4971;SDS011;2501;51.214;6.768;2023-07-20T14:53:45;1.33;;;1.23;;
4971;SDS011;2501;51.214;6.768;2023-07-20T14:56:14;1.30;;;0.88;;
4971;SDS011;2501;51.214;6.768;2023-07-20T14:58:42;2.05;;;1.08;;
4971;SDS011;2501;51.214;6.768;2023-07-20T15:01:13;2.03;;;0.80;;
4971;SDS011;2501;51.214;6.768;2023-07-20T15:03:42;3.40;;;1.03;;
4971;SDS011;2501;51.214;6.768;2023-07-20T15:06:10;1.33;;;1.20;;
4971;SDS011;2501;51.214;6.768;2023-07-20T15:08:39;4.80;;;1.40;;
4971;SDS011;2501;51.214;6.768;2023-07-20T15:11:07;1.30;;;0.80;;
4971;SDS011;2501;51.214;6.768;2023-07-20T15:13:36;0.82;;;0.82;;
4971;SDS011;2501;51.214;6.768;2023-07-20T15:16:07;2.80;;;1.00;;
4971;SDS011;2501;51.214;6.768;2023-07-20T15:18:38;1.30;;;1.00;;
4971;SDS011;2501;51.214;6.768;2023-07-20T15:21:07;1.30;;;1.10;;
4971;SDS011;2501;51.214;6.768;2023-07-20T15:23:35;1.50;;;0.98;;
4971;SDS011;2501;51.214;6.768;2023-07-20T15:26:03;1.00;;;1.00;;
4971;SDS011;2501;51.214;6.768;2023-07-20T15:28:32;2.00;;;0.90;;
4971;SDS011;2501;51.214;6.768;2023-07-20T15:31:00;3.00;;;0.80;;
4971;SDS011;2501;51.214;6.768;2023-07-20T15:33:30;1.10;;;0.80;;
4971;SDS011;2501;51.214;6.768;2023-07-20T15:36:02;2.80;;;0.90;;
4971;SDS011;2501;51.214;6.768;2023-07-20T15:38:32;0.93;;;0.93;;
4971;SDS011;2501;51.214;6.768;2023-07-20T15:41:00;2.90;;;1.00;;
4971;SDS011;2501;51.214;6.768;2023-07-20T15:43:30;2.60;;;1.20;;
4971;SDS011;2501;51.214;6.768;2023-07-20T15:46:00;1.02;;;1.02;;
4971;SDS011;2501;51.214;6.768;2023-07-20T15:48:30;1.42;;;0.95;;
4971;SDS011;2501;51.214;6.768;2023-07-20T15:50:59;7.40;;;1.03;;
4971;SDS011;2501;51.214;6.768;2023-07-20T15:53:30;4.30;;;0.90;;
4971;SDS011;2501;51.214;6.768;2023-07-20T15:55:58;3.60;;;0.90;;
4971;SDS011;2501;51.214;6.768;2023-07-20T15:58:26;1.40;;;1.00;;
4971;SDS011;2501;51.214;6.768;2023-07-20T16:00:55;3.60;;;1.00;;
4971;SDS011;2501;51.214;6.768;2023-07-20T16:03:24;1.80;;;0.90;;
4971;SDS011;2501;51.214;6.768;2023-07-20T16:05:53;1.30;;;0.90;;
4971;SDS011;2501;51.214;6.768;2023-07-20T16:08:24;1.10;;;0.90;;
4971;SDS011;2501;51.214;6.768;2023-07-20T16:10:52;1.10;;;0.85;;
4971;SDS011;2501;51.214;6.768;2023-07-20T16:13:22;4.10;;;0.90;;
4971;SDS011;2501;51.214;6.768;2023-07-20T16:15:51;1.05;;;0.85;;
4971;SDS011;2501;51.214;6.768;2023-07-20T16:18:20;1.00;;;0.90;;